CYQY

Sydney

Airport
ICAO code
CYQY
Summary
ICAO Region
NAM
ICAO Territory
Location

Sydney, Nova Scotia,

Coordinates
46° 9' 41" N , 60° 2' 52" W
KCC
Dfb
Metar
Observation
CYQY 100200Z 05011G20KT 5SM -DZ BR BKN005 OVC011 16/16 A2993 RMK ST6SC2 SLP138 DENSITY ALT 400FT
Station
Sydney, N. S.
Date/Time
2022-08-10 02:00:00
Wind direction
50°
Wind speed
11 kts
Lowest cloud amount
broken clouds
Temperature
16°C
Dew point
16°C
Humidity
100%
Weather condition
light

Description

International airport serving Sydney, Nova Scotia.

Climatology

Humid Continental climate (Köppen climate classification Dfb) - Variable weather patterns and a large seasonal temperature variance. Summers are often warm and humid with frequent thunderstorms and winters can be very cold with frequent snowfall and persistent snow cover.

Runways

Designator Length Width Surface Rops
1/19 1829 46 ASP Yes/Yes
7/25 2155 61 ASP Yes/Yes

Airport map

Aerial View

SKYbrary Partners:

Safety knowledge contributed by: